createdAt,value
2023-02-23T00:02:22.866Z,38.17
2023-02-23T00:04:51.311Z,37.20
2023-02-23T00:07:20.505Z,38.03
2023-02-23T00:09:48.902Z,35.85
2023-02-23T00:12:17.487Z,42.35
2023-02-23T00:14:47.736Z,38.65
2023-02-23T00:17:17.483Z,38.80
2023-02-23T00:22:18.372Z,37.63
2023-02-23T00:24:47.746Z,37.38
2023-02-23T00:27:20.938Z,35.22
2023-02-23T00:29:51.814Z,33.10
2023-02-23T00:32:20.974Z,34.65
2023-02-23T00:34:50.452Z,37.92
2023-02-23T00:37:19.566Z,36.65
2023-02-23T00:39:48.045Z,38.88
2023-02-23T00:42:16.512Z,37.47
2023-02-23T00:44:47.546Z,35.47
2023-02-23T00:47:17.413Z,37.13
2023-02-23T00:52:15.445Z,38.00
2023-02-23T00:54:43.906Z,38.63
2023-02-23T00:57:12.455Z,35.95
2023-02-23T00:59:40.887Z,38.60
2023-02-23T01:02:09.424Z,43.70
2023-02-23T01:04:39.357Z,41.75
2023-02-23T01:07:07.818Z,44.70
2023-02-23T01:09:36.227Z,39.97
2023-02-23T01:12:07.237Z,40.17
2023-02-23T01:14:35.830Z,41.20
2023-02-23T01:17:04.806Z,37.65
2023-02-23T01:19:34.183Z,39.83
2023-02-23T01:22:04.118Z,42.25
2023-02-23T01:24:32.671Z,37.78
2023-02-23T01:27:01.092Z,41.10
2023-02-23T01:29:29.706Z,40.83
2023-02-23T01:31:58.247Z,39.45
2023-02-23T01:34:27.099Z,37.70
2023-02-23T01:36:55.529Z,38.15
2023-02-23T01:39:25.312Z,38.88
2023-02-23T01:44:59.848Z,37.42
2023-02-23T01:47:30.062Z,38.22
2023-02-23T01:49:58.961Z,36.70
2023-02-23T01:52:27.725Z,41.67
2023-02-23T01:54:58.050Z,42.67
2023-02-23T01:57:26.988Z,40.40
2023-02-23T01:59:56.590Z,40.63
2023-02-23T02:02:33.648Z,45.53
2023-02-23T02:05:06.364Z,42.38
2023-02-23T02:07:36.156Z,45.28
2023-02-23T02:12:56.463Z,47.38
2023-02-23T02:15:31.456Z,44.50
2023-02-23T02:18:09.306Z,43.05
2023-02-23T02:21:04.598Z,44.60
2023-02-23T02:24:08.356Z,44.78
2023-02-23T02:26:51.218Z,41.92
2023-02-23T02:29:48.039Z,47.28
2023-02-23T02:32:55.361Z,53.92
2023-02-23T02:36:02.861Z,49.03
2023-02-23T02:38:51.170Z,43.42
2023-02-23T02:41:25.833Z,43.88
2023-02-23T02:44:02.422Z,51.92
2023-02-23T02:46:36.118Z,47.03
2023-02-23T02:49:09.823Z,42.60
2023-02-23T02:51:44.818Z,51.00
2023-02-23T02:54:26.534Z,47.90
2023-02-23T02:56:57.656Z,46.97
2023-02-23T02:59:43.711Z,43.55
2023-02-23T03:02:35.579Z,45.88
2023-02-23T03:05:21.577Z,48.35
2023-02-23T03:08:18.135Z,49.05
2023-02-23T03:11:14.009Z,50.25
2023-02-23T03:14:12.445Z,48.90
2023-02-23T03:17:07.728Z,49.80
2023-02-23T03:19:57.525Z,45.20
2023-02-23T03:25:36.759Z,49.13
2023-02-23T03:28:29.686Z,52.53
2023-02-23T03:31:26.873Z,55.78
2023-02-23T03:34:21.507Z,56.47
2023-02-23T03:37:15.285Z,50.25
2023-02-23T03:40:06.077Z,60.55
2023-02-23T03:42:55.700Z,59.33
2023-02-23T03:45:44.606Z,68.05
2023-02-23T03:48:32.107Z,66.70
2023-02-23T03:51:23.259Z,66.57
2023-02-23T03:54:12.704Z,63.97
2023-02-23T03:57:02.929Z,71.03
2023-02-23T03:59:53.002Z,77.22
2023-02-23T04:02:42.284Z,66.80
2023-02-23T04:05:39.607Z,79.03
2023-02-23T04:08:29.816Z,81.70
2023-02-23T04:11:21.512Z,67.18
2023-02-23T04:13:51.944Z,82.40
2023-02-23T04:16:19.971Z,74.28
2023-02-23T04:18:49.853Z,85.38
2023-02-23T04:21:18.469Z,78.78
2023-02-23T04:23:47.394Z,73.85
2023-02-23T04:26:16.258Z,77.75
2023-02-23T04:28:44.712Z,75.50
2023-02-23T04:31:13.108Z,72.65
2023-02-23T04:33:41.761Z,75.60
2023-02-23T04:36:11.726Z,74.20
2023-02-23T04:38:40.144Z,76.75
2023-02-23T04:41:11.626Z,73.63
2023-02-23T04:43:40.061Z,80.28
2023-02-23T04:46:09.052Z,71.88
2023-02-23T04:48:37.495Z,80.13
2023-02-23T04:51:06.423Z,78.03
2023-02-23T04:53:36.667Z,76.80
2023-02-23T04:56:05.408Z,74.00
2023-02-23T04:58:34.140Z,80.00
2023-02-23T05:01:07.118Z,78.40
2023-02-23T05:03:36.166Z,82.00
2023-02-23T05:06:04.940Z,79.25
2023-02-23T05:08:33.548Z,85.85
2023-02-23T05:11:03.312Z,81.32
2023-02-23T05:16:00.241Z,84.57
2023-02-23T05:18:30.444Z,79.40
2023-02-23T05:21:03.878Z,88.88
2023-02-23T05:23:32.642Z,83.18
2023-02-23T05:26:05.984Z,85.00
2023-02-23T05:28:35.399Z,85.80
2023-02-23T05:31:04.679Z,79.15
2023-02-23T05:33:34.018Z,78.88
2023-02-23T05:36:06.290Z,83.85
2023-02-23T05:38:34.714Z,86.40
2023-02-23T05:41:08.073Z,84.22
2023-02-23T05:43:36.763Z,101.60
2023-02-23T05:46:08.133Z,107.25
2023-02-23T05:48:36.941Z,97.65
2023-02-23T05:51:06.418Z,88.68
2023-02-23T05:53:34.988Z,95.10
2023-02-23T05:56:04.844Z,89.35
2023-02-23T06:01:02.901Z,86.60
2023-02-23T06:03:31.644Z,83.55
2023-02-23T06:06:00.189Z,82.30
2023-02-23T06:08:28.683Z,83.53
2023-02-23T06:10:57.221Z,80.95
2023-02-23T06:13:26.472Z,74.25
2023-02-23T06:15:56.890Z,76.50
2023-02-23T06:18:25.372Z,78.25
2023-02-23T06:20:53.804Z,79.25
2023-02-23T06:23:22.365Z,83.75
2023-02-23T06:25:50.759Z,82.45
2023-02-23T06:28:19.366Z,85.07
2023-02-23T06:30:48.683Z,81.95
2023-02-23T06:33:18.726Z,88.82
2023-02-23T06:35:47.166Z,76.97
2023-02-23T06:38:17.143Z,89.90
2023-02-23T06:40:45.791Z,99.03
2023-02-23T06:43:14.200Z,92.55
2023-02-23T06:45:42.592Z,80.55
2023-02-23T06:48:11.125Z,71.30
2023-02-23T06:50:40.885Z,79.85
2023-02-23T06:55:37.423Z,70.82
2023-02-23T06:58:07.112Z,71.40
2023-02-23T07:00:35.773Z,73.85
2023-02-23T07:03:04.352Z,69.85
2023-02-23T07:05:32.868Z,74.85
2023-02-23T07:08:02.728Z,73.30
2023-02-23T07:12:59.613Z,70.30
2023-02-23T07:15:28.478Z,60.03
2023-02-23T07:17:57.528Z,58.45
2023-02-23T07:20:26.141Z,60.47
2023-02-23T07:22:54.809Z,52.25
2023-02-23T07:25:24.864Z,52.65
2023-02-23T07:27:54.066Z,54.92
2023-02-23T07:30:24.467Z,47.28
2023-02-23T07:32:53.007Z,53.45
2023-02-23T07:35:21.762Z,45.67
2023-02-23T07:37:50.261Z,43.25
2023-02-23T07:40:20.381Z,46.40
2023-02-23T07:42:50.157Z,44.75
2023-02-23T07:45:18.785Z,47.08
2023-02-23T07:47:47.261Z,43.10
2023-02-23T07:50:15.684Z,39.28
2023-02-23T07:52:45.645Z,43.63
2023-02-23T07:55:14.308Z,37.10
2023-02-23T07:57:42.676Z,48.05
2023-02-23T08:00:13.679Z,41.30
2023-02-23T08:02:42.455Z,77.32
2023-02-23T08:05:11.824Z,83.80
2023-02-23T08:07:40.271Z,38.70
2023-02-23T08:10:09.464Z,37.00
2023-02-23T08:12:37.919Z,124.43
2023-02-23T08:15:08.325Z,92.65
2023-02-23T08:17:38.836Z,70.57
2023-02-23T08:20:08.564Z,39.10
2023-02-23T08:22:48.522Z,36.95
2023-02-23T08:25:18.080Z,39.25
2023-02-23T08:27:47.329Z,38.95
2023-02-23T08:30:16.852Z,40.17
2023-02-23T08:32:47.001Z,37.42
2023-02-23T08:35:16.158Z,37.00
2023-02-23T08:37:45.332Z,46.25
2023-02-23T08:40:15.750Z,54.15
2023-02-23T08:42:44.262Z,37.85
2023-02-23T08:45:13.291Z,34.13
2023-02-23T08:47:42.086Z,30.90
2023-02-23T08:50:13.743Z,51.13
2023-02-23T08:52:43.209Z,35.58
2023-02-23T08:55:13.883Z,35.20
2023-02-23T08:57:42.326Z,32.78
2023-02-23T09:00:16.605Z,32.78
2023-02-23T09:02:47.704Z,31.83
2023-02-23T09:05:17.959Z,32.97
2023-02-23T09:07:49.279Z,26.45
2023-02-23T09:10:20.861Z,28.17
2023-02-23T09:12:49.316Z,29.45
2023-02-23T09:15:18.084Z,27.58
2023-02-23T09:17:47.260Z,25.85
2023-02-23T09:20:18.794Z,25.60
2023-02-23T09:22:49.543Z,26.35
2023-02-23T09:25:22.138Z,23.77
2023-02-23T09:27:51.185Z,25.58
2023-02-23T09:30:20.958Z,29.50
2023-02-23T09:32:50.579Z,28.33
2023-02-23T09:35:22.440Z,27.23
2023-02-23T09:37:53.660Z,29.65
2023-02-23T09:40:25.136Z,25.38
2023-02-23T09:43:02.653Z,24.42
2023-02-23T09:45:43.503Z,25.08
2023-02-23T09:48:18.203Z,26.67
2023-02-23T09:50:51.721Z,32.15
2023-02-23T09:53:29.228Z,25.52
2023-02-23T09:55:59.481Z,26.02
2023-02-23T09:58:30.297Z,23.40
2023-02-23T10:01:32.404Z,25.80
2023-02-23T10:04:08.648Z,24.95
2023-02-23T10:06:40.646Z,24.30
2023-02-23T10:09:20.378Z,29.58
2023-02-23T10:11:56.243Z,22.52
2023-02-23T10:14:42.756Z,29.33
2023-02-23T10:17:21.882Z,26.15
2023-02-23T10:19:57.137Z,22.83
2023-02-23T10:22:27.320Z,23.80
2023-02-23T10:25:03.797Z,26.65
2023-02-23T10:27:40.622Z,24.67
2023-02-23T10:30:19.966Z,25.30
2023-02-23T10:32:55.237Z,24.33
2023-02-23T10:35:25.414Z,26.30
2023-02-23T10:37:56.454Z,22.90
2023-02-23T10:40:28.654Z,22.85
2023-02-23T10:42:59.022Z,25.05
2023-02-23T10:45:29.939Z,24.30
2023-02-23T10:48:01.497Z,23.02
2023-02-23T10:50:31.539Z,24.25
2023-02-23T10:53:05.594Z,25.73
2023-02-23T10:55:34.411Z,25.33
2023-02-23T10:58:09.335Z,26.90
2023-02-23T11:00:40.107Z,24.30
2023-02-23T11:03:20.393Z,20.95
2023-02-23T11:05:53.112Z,24.23
2023-02-23T11:08:26.342Z,25.45
2023-02-23T11:11:04.529Z,25.48
2023-02-23T11:13:39.201Z,23.48
2023-02-23T11:16:11.578Z,28.92
2023-02-23T11:18:41.833Z,21.45
2023-02-23T11:21:13.115Z,21.38
2023-02-23T11:23:43.858Z,23.00
2023-02-23T11:26:31.293Z,23.80
2023-02-23T11:29:05.584Z,21.27
2023-02-23T11:31:36.356Z,20.50
2023-02-23T11:34:06.973Z,20.30
2023-02-23T11:36:37.137Z,26.85
2023-02-23T11:39:19.268Z,21.52
2023-02-23T11:41:47.854Z,25.85
2023-02-23T11:44:24.475Z,22.40
2023-02-23T11:46:53.110Z,20.45
2023-02-23T11:49:25.056Z,23.00
2023-02-23T11:51:54.680Z,24.08
2023-02-23T11:54:29.566Z,26.52
2023-02-23T11:57:02.244Z,19.70
2023-02-23T11:59:32.571Z,21.00
2023-02-23T12:02:07.507Z,23.13
2023-02-23T12:04:38.505Z,19.73
2023-02-23T12:07:34.695Z,19.85
2023-02-23T12:10:13.329Z,22.10
2023-02-23T12:12:49.927Z,21.55
2023-02-23T12:15:25.714Z,24.17
2023-02-23T12:17:58.786Z,21.48
2023-02-23T12:20:31.605Z,23.10
2023-02-23T12:23:04.746Z,20.85
2023-02-23T12:25:40.697Z,21.30
2023-02-23T12:28:19.111Z,24.70
2023-02-23T12:30:53.094Z,20.88
2023-02-23T12:33:30.100Z,23.40
2023-02-23T12:36:01.609Z,19.83
2023-02-23T12:38:39.986Z,20.30
2023-02-23T12:41:14.928Z,20.52
2023-02-23T12:43:51.402Z,20.08
2023-02-23T12:46:24.019Z,20.58
2023-02-23T12:49:00.251Z,17.80
2023-02-23T12:51:34.753Z,21.15
2023-02-23T12:54:04.298Z,17.05
2023-02-23T12:56:44.171Z,18.27
2023-02-23T13:01:55.806Z,18.08
2023-02-23T13:04:39.323Z,17.00
2023-02-23T13:07:16.911Z,14.25
2023-02-23T13:09:56.675Z,15.77
2023-02-23T13:12:41.486Z,16.40
2023-02-23T13:15:19.746Z,15.70
2023-02-23T13:17:56.754Z,17.83
2023-02-23T13:20:33.551Z,18.85
2023-02-23T13:23:12.795Z,21.63
2023-02-23T13:25:50.375Z,19.60
2023-02-23T13:28:28.162Z,18.25
2023-02-23T13:30:57.892Z,14.52
2023-02-23T13:36:12.861Z,16.10
2023-02-23T13:38:47.608Z,15.48
2023-02-23T13:41:29.060Z,19.02
2023-02-23T13:44:05.416Z,16.75
2023-02-23T13:46:44.404Z,20.58
2023-02-23T13:49:28.487Z,19.97
2023-02-23T13:52:00.880Z,17.55
2023-02-23T13:54:34.988Z,15.48
2023-02-23T13:57:05.703Z,16.25
2023-02-23T13:59:43.952Z,19.20
2023-02-23T14:02:34.943Z,20.83
2023-02-23T14:05:06.212Z,18.35
2023-02-23T14:07:42.689Z,21.13
2023-02-23T14:10:19.573Z,19.65
2023-02-23T14:13:07.916Z,24.08
2023-02-23T14:15:48.264Z,18.95
2023-02-23T14:18:32.870Z,18.70
2023-02-23T14:21:14.708Z,20.10
2023-02-23T14:23:55.436Z,17.73
2023-02-23T14:26:42.125Z,17.98
2023-02-23T14:29:29.630Z,20.25
2023-02-23T14:32:06.141Z,16.65
2023-02-23T14:34:47.337Z,18.83
2023-02-23T14:37:26.275Z,20.73
2023-02-23T14:39:57.505Z,19.25
2023-02-23T14:42:27.899Z,19.52
2023-02-23T14:44:57.950Z,17.83
2023-02-23T14:47:29.076Z,18.55
2023-02-23T14:49:58.914Z,19.80
2023-02-23T14:55:16.064Z,22.05
2023-02-23T14:57:45.301Z,20.27
2023-02-23T15:00:23.232Z,23.15
2023-02-23T15:02:59.357Z,18.48
2023-02-23T15:05:30.520Z,25.48
2023-02-23T15:08:01.147Z,19.92
2023-02-23T15:10:34.092Z,20.48
2023-02-23T15:13:10.244Z,24.17
2023-02-23T15:15:45.381Z,21.15
2023-02-23T15:18:23.315Z,26.00
2023-02-23T15:20:52.416Z,24.55
2023-02-23T15:23:22.275Z,22.73
2023-02-23T15:25:51.260Z,23.83
2023-02-23T15:28:25.306Z,24.97
2023-02-23T15:30:55.409Z,27.15
2023-02-23T15:33:28.819Z,25.63
2023-02-23T15:36:10.669Z,24.77
2023-02-23T15:38:44.531Z,24.52
2023-02-23T15:41:30.446Z,27.27
2023-02-23T15:44:06.877Z,25.13
2023-02-23T15:46:37.748Z,28.38
2023-02-23T15:49:10.644Z,29.85
2023-02-23T15:51:48.586Z,28.13
2023-02-23T15:54:21.263Z,27.25
2023-02-23T15:56:50.943Z,32.25
2023-02-23T15:59:28.648Z,28.02
2023-02-23T16:01:59.604Z,27.38
2023-02-23T16:04:33.581Z,29.42
2023-02-23T16:07:15.708Z,29.60
2023-02-23T16:09:51.022Z,34.45
2023-02-23T16:12:23.077Z,31.55
2023-02-23T16:14:55.237Z,33.42
2023-02-23T16:17:28.963Z,31.73
2023-02-23T16:20:13.282Z,31.10
2023-02-23T16:22:46.020Z,30.92
2023-02-23T16:25:17.751Z,33.28
2023-02-23T16:27:48.554Z,35.63
2023-02-23T16:30:23.217Z,29.27
2023-02-23T16:33:05.826Z,34.33
2023-02-23T16:35:45.304Z,33.45
2023-02-23T16:38:15.850Z,37.33
2023-02-23T16:40:45.010Z,45.38
2023-02-23T16:43:13.431Z,42.38
2023-02-23T16:45:43.547Z,35.08
2023-02-23T16:48:15.446Z,33.88
2023-02-23T16:50:47.700Z,39.58
2023-02-23T16:53:16.998Z,37.13
2023-02-23T16:55:50.054Z,33.85
2023-02-23T16:58:21.745Z,31.90
2023-02-23T17:00:51.058Z,52.28
2023-02-23T17:03:22.201Z,39.20
2023-02-23T17:05:52.610Z,41.58
2023-02-23T17:08:21.163Z,50.42
2023-02-23T17:10:52.546Z,37.80
2023-02-23T17:13:23.008Z,132.85
2023-02-23T17:15:56.223Z,56.08
2023-02-23T17:18:26.817Z,47.08
2023-02-23T17:20:59.379Z,73.60
2023-02-23T17:23:38.172Z,134.77
2023-02-23T17:26:07.989Z,103.43
2023-02-23T17:28:36.525Z,42.28
2023-02-23T17:57:56.577Z,74.78
2023-02-23T18:01:21.308Z,71.80
2023-02-23T18:13:21.196Z,58.00
2023-02-23T18:16:03.041Z,59.53
2023-02-23T18:18:50.069Z,56.05
2023-02-23T18:21:22.887Z,60.17
2023-02-23T18:23:52.648Z,58.40
2023-02-23T18:26:24.385Z,61.28
2023-02-23T18:28:55.569Z,60.42
2023-02-23T18:31:29.908Z,64.93
2023-02-23T18:34:03.362Z,62.47
2023-02-23T18:36:36.121Z,59.25
2023-02-23T18:39:12.122Z,61.97
2023-02-23T18:41:42.105Z,63.28
2023-02-23T18:44:16.600Z,72.30
2023-02-23T18:46:48.084Z,65.22
2023-02-23T18:49:18.446Z,65.15
2023-02-23T18:51:49.546Z,66.75
2023-02-23T18:54:31.642Z,62.58
2023-02-23T18:57:21.853Z,67.85
2023-02-23T19:00:20.564Z,71.57
2023-02-23T19:03:36.551Z,69.15
2023-02-23T19:06:31.962Z,72.55
2023-02-23T19:09:23.551Z,71.03
2023-02-23T19:11:59.176Z,73.40
2023-02-23T19:14:48.410Z,67.97
2023-02-23T19:17:20.777Z,72.53
2023-02-23T19:20:06.265Z,75.43
2023-02-23T19:26:18.252Z,69.88
2023-02-23T19:29:44.057Z,66.70
2023-02-23T20:06:18.164Z,76.90
2023-02-23T22:08:54.271Z,95.72
2023-02-23T22:11:31.438Z,96.63
2023-02-23T22:14:07.501Z,94.05
2023-02-23T22:16:54.075Z,102.15
2023-02-23T22:19:37.837Z,92.53
2023-02-23T22:22:12.518Z,97.30
2023-02-23T22:24:59.014Z,97.55
2023-02-23T22:30:18.429Z,89.05
2023-02-23T22:33:01.177Z,94.80
2023-02-23T22:50:06.887Z,88.30
2023-02-23T22:52:51.113Z,100.10
2023-02-23T22:55:47.348Z,93.40
2023-02-23T22:58:28.896Z,98.65
2023-02-23T23:01:31.535Z,105.90
2023-02-23T23:07:55.795Z,103.47
2023-02-23T23:10:29.883Z,105.72
2023-02-23T23:13:04.136Z,103.10
2023-02-23T23:15:41.525Z,104.95
2023-02-23T23:18:21.647Z,106.38
2023-02-23T23:20:58.422Z,105.32
2023-02-23T23:23:36.947Z,115.60
2023-02-23T23:26:14.883Z,107.63
2023-02-23T23:28:53.180Z,97.18
2023-02-23T23:42:23.864Z,92.68
2023-02-23T23:51:20.921Z,98.53
2023-02-23T23:54:13.534Z,112.90
